createdAt,value
2023-05-25T00:03:14.662Z,13.00
2023-05-25T00:08:19.985Z,12.90
2023-05-25T00:13:25.330Z,12.90
2023-05-25T00:18:30.660Z,12.90
2023-05-25T00:23:36.017Z,12.90
2023-05-25T00:28:41.191Z,12.80
2023-05-25T00:33:46.400Z,12.80
2023-05-25T00:38:51.684Z,12.70
2023-05-25T00:43:57.696Z,12.70
2023-05-25T00:49:03.162Z,12.70
2023-05-25T00:54:09.069Z,12.60
2023-05-25T00:59:19.450Z,12.50
2023-05-25T01:04:25.660Z,12.50
2023-05-25T01:09:35.040Z,12.40
2023-05-25T01:14:42.794Z,12.40
2023-05-25T01:20:01.634Z,12.40
2023-05-25T01:25:16.535Z,12.40
2023-05-25T01:30:26.366Z,12.30
2023-05-25T01:35:40.322Z,12.30
2023-05-25T01:40:45.727Z,12.30
2023-05-25T01:45:52.133Z,12.20
2023-05-25T01:51:04.474Z,12.20
2023-05-25T01:56:12.017Z,12.10
2023-05-25T02:01:19.607Z,12.10
2023-05-25T02:06:31.790Z,12.10
2023-05-25T02:11:40.545Z,12.10
2023-05-25T02:16:47.635Z,12.10
2023-05-25T02:21:53.018Z,12.10
2023-05-25T02:27:02.056Z,12.00
2023-05-25T02:32:11.092Z,12.00
2023-05-25T02:37:17.017Z,12.00
2023-05-25T02:42:31.060Z,11.90
2023-05-25T02:47:36.590Z,11.90
2023-05-25T02:52:41.988Z,11.90
2023-05-25T02:57:47.693Z,11.90
2023-05-25T03:02:55.378Z,11.90
2023-05-25T03:08:00.705Z,11.90
2023-05-25T03:13:07.460Z,11.80
2023-05-25T03:18:13.740Z,11.80
2023-05-25T03:23:25.082Z,11.80
2023-05-25T03:28:34.401Z,11.80
2023-05-25T03:33:48.315Z,11.80
2023-05-25T03:39:02.562Z,11.90
2023-05-25T03:44:27.978Z,12.00
2023-05-25T03:49:35.520Z,12.10
2023-05-25T03:54:42.687Z,12.20
2023-05-25T03:59:48.157Z,12.20
2023-05-25T04:04:56.566Z,12.40
2023-05-25T04:10:01.765Z,12.40
2023-05-25T04:15:14.629Z,12.50
2023-05-25T04:20:23.934Z,12.60
2023-05-25T04:25:35.352Z,12.60
2023-05-25T04:30:43.376Z,12.70
2023-05-25T04:35:50.986Z,12.70
2023-05-25T04:40:57.837Z,12.70
2023-05-25T04:51:45.395Z,12.80
2023-05-25T04:56:55.841Z,12.80
2023-05-25T05:02:07.171Z,12.90
2023-05-25T05:07:13.394Z,13.10
2023-05-25T05:12:24.500Z,13.40
2023-05-25T05:17:32.121Z,13.80
2023-05-25T05:22:40.078Z,14.20
2023-05-25T05:27:45.626Z,14.60
2023-05-25T05:32:51.620Z,15.00
2023-05-25T05:38:05.290Z,15.20
2023-05-25T05:43:13.527Z,15.10
2023-05-25T05:48:20.406Z,15.20
2023-05-25T05:53:29.952Z,15.60
2023-05-25T05:58:35.184Z,16.00
2023-05-25T06:03:40.552Z,16.30
2023-05-25T06:08:46.740Z,16.60
2023-05-25T06:13:52.096Z,17.00
2023-05-25T06:18:57.481Z,17.40
2023-05-25T06:24:02.936Z,17.70
2023-05-25T06:29:08.314Z,18.00
2023-05-25T06:34:13.689Z,18.00
2023-05-25T06:39:19.246Z,18.20
2023-05-25T06:44:24.550Z,18.20
2023-05-25T06:49:30.502Z,18.50
2023-05-25T06:54:36.247Z,19.20
2023-05-25T06:59:41.612Z,19.70
2023-05-25T07:04:46.940Z,20.30
2023-05-25T07:09:53.079Z,20.60
2023-05-25T07:15:02.518Z,21.00
2023-05-25T07:20:09.313Z,21.60
2023-05-25T07:25:16.760Z,21.80
2023-05-25T07:30:22.321Z,22.20
2023-05-25T07:35:30.186Z,22.60
2023-05-25T07:40:36.222Z,22.70
2023-05-25T07:45:41.602Z,23.00
2023-05-25T07:50:48.078Z,23.80
2023-05-25T07:55:53.688Z,24.10
2023-05-25T08:01:04.758Z,24.20
2023-05-25T08:06:10.058Z,24.20
2023-05-25T08:11:17.362Z,23.70
2023-05-25T08:16:22.938Z,24.00
2023-05-25T08:21:28.186Z,24.80
2023-05-25T08:26:45.902Z,25.50
2023-05-25T08:31:51.054Z,25.70
2023-05-25T08:36:58.186Z,26.00
2023-05-25T08:42:11.190Z,26.00
2023-05-25T08:47:40.438Z,25.50
2023-05-25T08:52:47.281Z,25.60
2023-05-25T08:58:02.821Z,25.20
2023-05-25T09:03:14.341Z,25.80
2023-05-25T09:08:23.826Z,27.40
2023-05-25T09:13:29.344Z,27.20
2023-05-25T09:18:34.690Z,26.90
2023-05-25T09:23:40.555Z,26.80
2023-05-25T09:28:52.494Z,26.30
2023-05-25T09:33:59.788Z,26.70
2023-05-25T09:39:05.496Z,27.20
2023-05-25T09:44:12.119Z,27.30
2023-05-25T09:49:17.829Z,27.90
2023-05-25T09:54:25.040Z,28.20
2023-05-25T09:59:30.344Z,27.10
2023-05-25T10:04:35.701Z,27.10
2023-05-25T10:09:42.965Z,27.80
2023-05-25T10:14:51.316Z,28.30
2023-05-25T10:20:01.699Z,28.10
2023-05-25T10:25:34.533Z,26.80
2023-05-25T10:30:41.941Z,26.40
2023-05-25T10:36:02.290Z,27.10
2023-05-25T10:41:05.547Z,27.60
2023-05-25T10:46:12.931Z,26.90
2023-05-25T10:51:23.238Z,27.20
2023-05-25T10:56:28.754Z,27.40
2023-05-25T11:01:34.282Z,28.70
2023-05-25T11:06:44.559Z,29.40
2023-05-25T11:11:54.455Z,27.30
2023-05-25T11:17:17.105Z,27.80
2023-05-25T11:22:24.506Z,27.30
2023-05-25T11:27:32.137Z,27.20
2023-05-25T11:32:39.622Z,28.40
2023-05-25T11:37:47.969Z,28.10
2023-05-25T11:42:54.661Z,26.60
2023-05-25T11:47:59.956Z,26.20
2023-05-25T11:53:07.469Z,27.30
2023-05-25T11:58:12.962Z,27.70
2023-05-25T12:03:33.590Z,27.30
2023-05-25T12:08:39.374Z,26.40
2023-05-25T12:13:44.711Z,26.80
2023-05-25T12:18:50.170Z,27.30
2023-05-25T12:23:56.027Z,26.30
2023-05-25T12:29:06.730Z,25.70
2023-05-25T12:34:17.381Z,26.70
2023-05-25T12:39:38.408Z,27.30
2023-05-25T12:44:46.569Z,27.00
2023-05-25T12:50:12.473Z,25.60
2023-05-25T12:55:31.896Z,25.30
2023-05-25T13:00:39.125Z,25.00
2023-05-25T13:05:49.274Z,25.40
2023-05-25T13:10:57.407Z,26.00
2023-05-25T13:16:03.346Z,25.70
2023-05-25T13:21:09.910Z,25.70
2023-05-25T13:26:15.351Z,25.50
2023-05-25T13:31:22.804Z,25.60
2023-05-25T13:36:28.351Z,25.20
2023-05-25T13:41:33.701Z,24.80
2023-05-25T13:46:39.317Z,24.80
2023-05-25T13:51:44.757Z,25.00
2023-05-25T13:56:50.091Z,25.80
2023-05-25T14:01:56.227Z,25.90
2023-05-25T14:07:02.941Z,26.60
2023-05-25T14:12:08.489Z,26.90
2023-05-25T14:17:13.793Z,27.00
2023-05-25T14:22:19.139Z,27.10
2023-05-25T14:27:25.118Z,27.10
2023-05-25T14:32:31.892Z,27.50
2023-05-25T14:37:38.516Z,27.30
2023-05-25T14:42:45.051Z,27.10
2023-05-25T14:47:58.083Z,26.20
2023-05-25T14:53:00.003Z,25.50
2023-05-25T14:58:08.212Z,24.90
2023-05-25T15:03:16.830Z,24.70
2023-05-25T15:08:23.623Z,24.30
2023-05-25T15:13:29.315Z,24.30
2023-05-25T15:18:37.098Z,24.40
2023-05-25T15:23:43.415Z,24.20
2023-05-25T15:28:51.674Z,23.80
2023-05-25T15:33:59.163Z,23.60
2023-05-25T15:39:11.463Z,23.80
2023-05-25T15:44:16.820Z,23.80
2023-05-25T15:49:22.008Z,23.70
2023-05-25T15:54:27.252Z,23.70
2023-05-25T15:59:32.435Z,23.50
2023-05-25T16:04:37.684Z,23.30
2023-05-25T16:09:42.867Z,23.20
2023-05-25T16:14:48.548Z,22.90
2023-05-25T16:19:53.763Z,22.80
2023-05-25T16:24:59.507Z,22.90
2023-05-25T16:30:05.047Z,23.00
2023-05-25T16:35:10.584Z,23.00
2023-05-25T16:40:16.057Z,22.80
2023-05-25T16:45:21.439Z,22.40
2023-05-25T16:50:31.283Z,22.20
2023-05-25T16:55:36.879Z,22.00
2023-05-25T17:00:42.931Z,22.00
2023-05-25T17:05:48.128Z,21.90
2023-05-25T17:10:53.793Z,21.90
2023-05-25T17:16:00.170Z,21.80
2023-05-25T17:21:05.607Z,21.80
2023-05-25T17:26:10.878Z,21.80
2023-05-25T17:31:16.709Z,21.70
2023-05-25T17:36:23.253Z,21.60
2023-05-25T17:41:30.162Z,21.50
2023-05-25T17:46:35.562Z,21.50
2023-05-25T17:51:42.007Z,21.40
2023-05-25T17:56:47.804Z,21.20
2023-05-25T18:01:53.190Z,21.00
2023-05-25T18:06:58.367Z,20.90
2023-05-25T18:12:03.977Z,20.80
2023-05-25T18:17:09.324Z,20.70
2023-05-25T18:22:22.004Z,20.70
2023-05-25T18:27:27.282Z,20.40
2023-05-25T18:32:38.898Z,20.20
2023-05-25T18:37:44.571Z,20.00
2023-05-25T18:42:51.613Z,19.90
2023-05-25T18:47:56.897Z,19.70
2023-05-25T18:53:03.040Z,19.50
2023-05-25T18:58:08.586Z,19.30
2023-05-25T19:03:15.891Z,19.10
2023-05-25T19:08:21.574Z,19.00
2023-05-25T19:13:26.880Z,18.80
2023-05-25T19:18:32.230Z,18.80
2023-05-25T19:23:37.472Z,18.60
2023-05-25T19:28:43.257Z,18.50
2023-05-25T19:33:50.129Z,18.30
2023-05-25T19:38:55.573Z,18.10
2023-05-25T19:44:01.722Z,18.00
2023-05-25T19:49:08.260Z,17.90
2023-05-25T19:54:13.721Z,17.80
2023-05-25T19:59:20.893Z,17.70
2023-05-25T20:04:41.735Z,17.50
2023-05-25T20:09:47.438Z,17.40
2023-05-25T20:14:53.884Z,17.20
2023-05-25T20:20:00.921Z,17.10
2023-05-25T20:25:06.508Z,17.00
2023-05-25T20:30:17.830Z,16.90
2023-05-25T20:35:23.149Z,16.80
2023-05-25T20:40:28.358Z,16.70
2023-05-25T20:45:34.106Z,16.60
2023-05-25T20:50:39.339Z,16.40
2023-05-25T20:55:44.830Z,16.30
2023-05-25T21:00:50.594Z,16.20
2023-05-25T21:05:56.089Z,16.10
2023-05-25T21:11:02.033Z,15.90
2023-05-25T21:16:07.666Z,15.80
2023-05-25T21:21:14.912Z,15.80
2023-05-25T21:26:21.581Z,15.60
2023-05-25T21:31:27.535Z,15.50
2023-05-25T21:36:33.505Z,15.30
2023-05-25T21:41:38.875Z,15.20
2023-05-25T21:46:44.385Z,15.10
2023-05-25T21:51:49.918Z,15.10
2023-05-25T21:56:55.620Z,14.90
2023-05-25T22:02:00.998Z,14.90
2023-05-25T22:07:06.356Z,14.80
2023-05-25T22:12:13.113Z,14.70
2023-05-25T22:17:19.171Z,14.50
2023-05-25T22:22:24.628Z,14.40
2023-05-25T22:27:29.965Z,14.30
2023-05-25T22:32:35.701Z,14.20
2023-05-25T22:37:41.303Z,14.20
2023-05-25T22:42:48.161Z,14.10
2023-05-25T22:47:54.039Z,14.00
2023-05-25T22:52:59.352Z,13.90
2023-05-25T22:58:04.648Z,13.80
2023-05-25T23:03:10.421Z,13.80
2023-05-25T23:08:15.879Z,13.70
2023-05-25T23:13:22.997Z,13.60
2023-05-25T23:18:28.290Z,13.50
2023-05-25T23:23:33.410Z,13.30
2023-05-25T23:28:38.672Z,13.00
2023-05-25T23:33:44.020Z,12.80
2023-05-25T23:38:49.172Z,12.60
2023-05-25T23:43:54.637Z,12.50
2023-05-25T23:48:59.915Z,12.30
2023-05-25T23:54:05.337Z,12.20
2023-05-25T23:59:12.437Z,12.10
